Time,TemperatureF,DewpointF,PressureIn,WindDirection,WindDirectionDegrees,WindSpeedMPH,WindSpeedGustMPH,Humidity,HourlyPrecipIn,Conditions,Clouds,dailyrainin,SoftwareType,DateUTC
2013-11-04 00:08:00,42.0,38.0,30.27,SSE,161,1.0,8.0,86,0.00,,,0.00,weatherlink.com 1.10,2013-11-04 06:08:00,
2013-11-04 00:23:00,41.9,38.0,30.27,SSE,159,1.0,8.0,87,0.00,,,0.00,weatherlink.com 1.10,2013-11-04 06:23:00,
2013-11-04 00:38:00,41.6,38.0,30.27,SE,127,0.0,6.0,87,0.00,,,0.00,weatherlink.com 1.10,2013-11-04 06:38:00,
2013-11-04 00:53:00,41.4,38.0,30.25,SE,134,0.0,5.0,88,0.00,,,0.00,weatherlink.com 1.10,2013-11-04 06:53:00,
2013-11-04 01:08:00,41.1,38.0,30.26,ESE,115,0.0,6.0,88,0.00,,,0.00,weatherlink.com 1.10,2013-11-04 07:08:00,
2013-11-04 01:23:00,40.9,38.0,30.25,SE,142,0.0,7.0,89,0.00,,,0.00,weatherlink.com 1.10,2013-11-04 07:23:00,
2013-11-04 01:38:00,40.8,38.0,30.25,East,90,0.0,4.0,89,0.00,,,0.00,weatherlink.com 1.10,2013-11-04 07:38:00,
2013-11-04 01:53:00,41.0,38.0,30.25,SSE,160,4.0,11.0,88,0.00,,,0.00,weatherlink.com 1.10,2013-11-04 07:53:00,
2013-11-04 02:07:00,41.2,38.0,30.25,SSE,151,0.0,7.0,88,0.00,,,0.00,weatherlink.com 1.10,2013-11-04 08:07:00,
2013-11-04 02:23:00,40.9,37.0,30.25,South,169,2.0,7.0,87,0.00,,,0.00,weatherlink.com 1.10,2013-11-04 08:23:00,
2013-11-04 02:38:00,40.8,38.0,30.25,SSE,148,3.0,8.0,88,0.00,,,0.00,weatherlink.com 1.10,2013-11-04 08:38:00,
2013-11-04 02:53:00,40.9,37.0,30.24,SSE,163,2.0,5.0,87,0.00,,,0.00,weatherlink.com 1.10,2013-11-04 08:53:00,
2013-11-04 03:08:00,41.1,38.0,30.24,South,178,0.0,7.0,87,0.00,,,0.00,weatherlink.com 1.10,2013-11-04 09:08:00,
2013-11-04 03:23:00,41.1,37.0,30.25,South,180,2.0,7.0,86,0.00,,,0.00,weatherlink.com 1.10,2013-11-04 09:23:00,
2013-11-04 03:38:00,41.1,38.0,30.25,South,176,0.0,5.0,87,0.00,,,0.00,weatherlink.com 1.10,2013-11-04 09:38:00,
2013-11-04 03:53:00,41.1,38.0,30.24,SE,134,3.0,7.0,87,0.00,,,0.00,weatherlink.com 1.10,2013-11-04 09:53:00,
2013-11-04 04:08:00,41.1,38.0,30.24,SSE,157,2.0,8.0,87,0.00,,,0.00,weatherlink.com 1.10,2013-11-04 10:08:00,
2013-11-04 04:23:00,41.1,38.0,30.24,South,180,0.0,7.0,87,0.00,,,0.00,weatherlink.com 1.10,2013-11-04 10:23:00,
2013-11-04 04:38:00,41.0,37.0,30.24,South,184,1.0,10.0,87,0.00,,,0.00,weatherlink.com 1.10,2013-11-04 10:38:00,
2013-11-04 04:53:00,41.2,37.0,30.24,SSE,167,3.0,9.0,86,0.00,,,0.00,weatherlink.com 1.10,2013-11-04 10:53:00,
2013-11-04 05:08:00,41.0,37.0,30.24,South,186,1.0,7.0,86,0.00,,,0.00,weatherlink.com 1.10,2013-11-04 11:08:00,
2013-11-04 05:23:00,40.9,37.0,30.23,South,180,0.0,5.0,87,0.00,,,0.00,weatherlink.com 1.10,2013-11-04 11:23:00,
2013-11-04 05:38:00,40.9,37.0,30.24,SSE,159,0.0,6.0,86,0.00,,,0.00,weatherlink.com 1.10,2013-11-04 11:38:00,
2013-11-04 05:53:00,41.0,37.0,30.23,South,173,0.0,6.0,87,0.00,,,0.00,weatherlink.com 1.10,2013-11-04 11:53:00,
2013-11-04 06:08:00,41.2,38.0,30.23,SSE,164,3.0,11.0,87,0.00,,,0.00,weatherlink.com 1.10,2013-11-04 12:08:00,
2013-11-04 06:23:00,41.4,38.0,30.22,SSE,164,3.0,6.0,86,0.00,,,0.00,weatherlink.com 1.10,2013-11-04 12:23:00,
2013-11-04 06:38:00,41.5,38.0,30.22,SSE,155,3.0,9.0,87,0.00,,,0.00,weatherlink.com 1.10,2013-11-04 12:38:00,
2013-11-04 06:53:00,41.6,38.0,30.22,SSE,147,0.0,9.0,86,0.00,,,0.00,weatherlink.com 1.10,2013-11-04 12:53:00,
2013-11-04 07:08:00,41.9,38.0,30.22,SSE,159,0.0,10.0,86,0.00,,,0.00,weatherlink.com 1.10,2013-11-04 13:08:00,
2013-11-04 07:24:00,42.0,38.0,30.22,South,187,3.0,9.0,86,0.00,,,0.00,weatherlink.com 1.10,2013-11-04 13:24:00,
2013-11-04 07:39:00,42.6,39.0,30.23,South,176,5.0,12.0,86,0.00,,,0.00,weatherlink.com 1.10,2013-11-04 13:39:00,
2013-11-04 07:54:00,43.4,39.0,30.22,SSE,168,1.0,11.0,84,0.00,,,0.00,weatherlink.com 1.10,2013-11-04 13:54:00,
2013-11-04 08:09:00,44.6,40.0,30.22,South,183,2.0,10.0,83,0.00,,,0.00,weatherlink.com 1.10,2013-11-04 14:09:00,
2013-11-04 08:24:00,46.2,40.0,30.21,South,182,3.0,15.0,79,0.00,,,0.00,weatherlink.com 1.10,2013-11-04 14:24:00,
2013-11-04 08:39:00,46.5,40.0,30.22,SSE,162,13.0,16.0,77,0.00,,,0.00,weatherlink.com 1.10,2013-11-04 14:39:00,
2013-11-04 08:54:00,46.8,40.0,30.22,South,169,9.0,16.0,77,0.00,,,0.00,weatherlink.com 1.10,2013-11-04 14:54:00,
2013-11-04 09:09:00,47.4,40.0,30.21,South,176,7.0,18.0,75,0.00,,,0.00,weatherlink.com 1.10,2013-11-04 15:09:00,
2013-11-04 09:39:00,47.4,41.0,30.21,South,176,6.0,13.0,77,0.00,,,0.00,weatherlink.com 1.10,2013-11-04 15:39:00,
2013-11-04 09:54:00,49.2,41.0,30.20,South,174,11.0,17.0,73,0.00,,,0.00,weatherlink.com 1.10,2013-11-04 15:54:00,
2013-11-04 10:09:00,50.9,41.0,30.21,South,184,9.0,21.0,70,0.00,,,0.00,weatherlink.com 1.10,2013-11-04 16:09:00,
2013-11-04 10:24:00,52.0,42.0,30.20,South,176,12.0,22.0,68,0.00,,,0.00,weatherlink.com 1.10,2013-11-04 16:24:00,
2013-11-04 10:39:00,51.3,41.0,30.20,South,170,9.0,23.0,67,0.00,,,0.00,weatherlink.com 1.10,2013-11-04 16:39:00,
2013-11-04 10:54:00,51.6,41.0,30.19,South,178,16.0,19.0,68,0.00,,,0.00,weatherlink.com 1.10,2013-11-04 16:54:00,
2013-11-04 11:09:00,53.7,42.0,30.18,South,175,7.0,19.0,65,0.00,,,0.00,weatherlink.com 1.10,2013-11-04 17:09:00,
2013-11-04 11:24:00,52.6,41.0,30.18,South,174,10.0,18.0,65,0.00,,,0.00,weatherlink.com 1.10,2013-11-04 17:24:00,
2013-11-04 11:39:00,53.5,41.0,30.16,SSE,157,12.0,18.0,63,0.00,,,0.00,weatherlink.com 1.10,2013-11-04 17:39:00,
2013-11-04 11:54:00,52.9,41.0,30.15,South,189,9.0,15.0,65,0.00,,,0.00,weatherlink.com 1.10,2013-11-04 17:54:00,
2013-11-04 12:09:00,53.0,41.0,30.14,South,190,9.0,20.0,64,0.00,,,0.00,weatherlink.com 1.10,2013-11-04 18:09:00,
2013-11-04 12:24:00,53.6,42.0,30.14,SSE,162,13.0,20.0,64,0.00,,,0.00,weatherlink.com 1.10,2013-11-04 18:24:00,
2013-11-04 12:39:00,54.5,42.0,30.14,South,176,9.0,17.0,63,0.00,,,0.00,weatherlink.com 1.10,2013-11-04 18:39:00,
2013-11-04 12:54:00,54.6,41.0,30.13,SSE,164,6.0,20.0,60,0.00,,,0.00,weatherlink.com 1.10,2013-11-04 18:54:00,
2013-11-04 13:10:00,54.8,41.0,30.12,SSE,153,11.0,24.0,61,0.00,,,0.00,weatherlink.com 1.10,2013-11-04 19:10:00,
2013-11-04 13:25:00,56.0,42.0,30.13,South,179,7.0,23.0,59,0.00,,,0.00,weatherlink.com 1.10,2013-11-04 19:25:00,
2013-11-04 13:40:00,56.2,42.0,30.13,South,180,9.0,19.0,59,0.00,,,0.00,weatherlink.com 1.10,2013-11-04 19:40:00,
2013-11-04 13:55:00,55.7,42.0,30.13,South,169,10.0,17.0,60,0.00,,,0.00,weatherlink.com 1.10,2013-11-04 19:55:00,
2013-11-04 14:10:00,55.7,43.0,30.13,SSW,196,8.0,20.0,62,0.00,,,0.00,weatherlink.com 1.10,2013-11-04 20:10:00,
2013-11-04 14:25:00,55.5,43.0,30.13,SSE,163,7.0,18.0,63,0.00,,,0.00,weatherlink.com 1.10,2013-11-04 20:25:00,
2013-11-04 14:40:00,55.6,43.0,30.12,South,184,8.0,21.0,63,0.00,,,0.00,weatherlink.com 1.10,2013-11-04 20:40:00,
2013-11-04 14:55:00,55.7,43.0,30.12,SSE,165,15.0,19.0,63,0.00,,,0.00,weatherlink.com 1.10,2013-11-04 20:55:00,
2013-11-04 15:10:00,55.5,43.0,30.11,SSE,148,11.0,16.0,64,0.00,,,0.00,weatherlink.com 1.10,2013-11-04 21:10:00,
2013-11-04 15:24:00,55.7,44.0,30.11,South,177,10.0,16.0,64,0.00,,,0.00,weatherlink.com 1.10,2013-11-04 21:24:00,
2013-11-04 15:40:00,55.5,44.0,30.11,South,184,5.0,16.0,66,0.00,,,0.00,weatherlink.com 1.10,2013-11-04 21:40:00,
2013-11-04 15:55:00,55.8,44.0,30.11,South,188,5.0,17.0,66,0.00,,,0.00,weatherlink.com 1.10,2013-11-04 21:55:00,
2013-11-04 16:10:00,55.3,44.0,30.11,South,175,8.0,14.0,67,0.00,,,0.00,weatherlink.com 1.10,2013-11-04 22:10:00,
2013-11-04 16:25:00,54.9,44.0,30.11,South,185,8.0,16.0,67,0.00,,,0.00,weatherlink.com 1.10,2013-11-04 22:25:00,
2013-11-04 16:40:00,54.7,44.0,30.12,South,184,10.0,17.0,68,0.00,,,0.00,weatherlink.com 1.10,2013-11-04 22:40:00,
2013-11-04 16:55:00,53.8,45.0,30.12,South,185,5.0,10.0,71,0.00,,,0.00,weatherlink.com 1.10,2013-11-04 22:55:00,
2013-11-04 17:25:00,52.1,44.0,30.14,South,177,5.0,9.0,75,0.00,,,0.00,weatherlink.com 1.10,2013-11-04 23:25:00,
2013-11-04 17:40:00,51.7,44.0,30.14,South,183,4.0,8.0,76,0.00,,,0.00,weatherlink.com 1.10,2013-11-04 23:40:00,
2013-11-04 17:55:00,51.5,45.0,30.14,South,178,5.0,10.0,77,0.00,,,0.00,weatherlink.com 1.10,2013-11-04 23:55:00,
2013-11-04 18:10:00,51.5,45.0,30.15,South,178,6.0,8.0,78,0.00,,,0.00,weatherlink.com 1.10,2013-11-05 00:10:00,
2013-11-04 18:25:00,52.2,45.0,30.16,South,191,6.0,11.0,76,0.00,,,0.00,weatherlink.com 1.10,2013-11-05 00:25:00,
2013-11-04 18:40:00,52.8,45.0,30.16,South,178,9.0,15.0,75,0.00,,,0.00,weatherlink.com 1.10,2013-11-05 00:40:00,
2013-11-04 18:55:00,52.7,45.0,30.16,South,184,9.0,15.0,75,0.00,,,0.00,weatherlink.com 1.10,2013-11-05 00:55:00,
2013-11-04 19:10:00,52.7,45.0,30.16,SSW,202,4.0,15.0,74,0.00,,,0.00,weatherlink.com 1.10,2013-11-05 01:10:00,
2013-11-04 19:25:00,52.6,45.0,30.17,South,176,7.0,17.0,75,0.00,,,0.00,weatherlink.com 1.10,2013-11-05 01:25:00,
2013-11-04 19:40:00,52.3,45.0,30.17,South,185,7.0,13.0,76,0.00,,,0.00,weatherlink.com 1.10,2013-11-05 01:40:00,
2013-11-04 19:55:00,52.2,45.0,30.17,South,186,6.0,11.0,76,0.00,,,0.00,weatherlink.com 1.10,2013-11-05 01:55:00,
2013-11-04 20:10:00,52.1,45.0,30.17,South,186,6.0,11.0,76,0.00,,,0.00,weatherlink.com 1.10,2013-11-05 02:10:00,
2013-11-04 20:25:00,52.0,45.0,30.17,South,185,4.0,9.0,77,0.00,,,0.00,weatherlink.com 1.10,2013-11-05 02:25:00,
2013-11-04 20:40:00,51.9,45.0,30.18,South,190,5.0,12.0,76,0.00,,,0.00,weatherlink.com 1.10,2013-11-05 02:40:00,
2013-11-04 20:55:00,51.8,45.0,30.18,SSW,196,6.0,13.0,77,0.00,,,0.00,weatherlink.com 1.10,2013-11-05 02:55:00,
2013-11-04 21:10:00,51.5,45.0,30.18,South,190,5.0,10.0,78,0.00,,,0.00,weatherlink.com 1.10,2013-11-05 03:10:00,
2013-11-04 21:25:00,51.5,45.0,30.18,SSW,196,6.0,11.0,78,0.00,,,0.00,weatherlink.com 1.10,2013-11-05 03:25:00,
2013-11-04 21:40:00,51.4,45.0,30.19,South,182,5.0,12.0,78,0.00,,,0.00,weatherlink.com 1.10,2013-11-05 03:40:00,
2013-11-04 21:55:00,51.4,45.0,30.18,South,180,4.0,9.0,79,0.00,,,0.00,weatherlink.com 1.10,2013-11-05 03:55:00,
2013-11-04 22:10:00,51.3,45.0,30.18,SSW,196,5.0,9.0,79,0.00,,,0.00,weatherlink.com 1.10,2013-11-05 04:10:00,
2013-11-04 22:25:00,51.3,45.0,30.19,SSW,200,6.0,11.0,79,0.00,,,0.00,weatherlink.com 1.10,2013-11-05 04:25:00,
2013-11-04 22:40:00,51.1,45.0,30.19,SSW,211,5.0,11.0,79,0.00,,,0.00,weatherlink.com 1.10,2013-11-05 04:40:00,
2013-11-04 22:55:00,51.0,45.0,30.19,SSW,194,7.0,10.0,80,0.00,,,0.00,weatherlink.com 1.10,2013-11-05 04:55:00,
2013-11-04 23:10:00,50.8,45.0,30.19,SSW,192,4.0,9.0,80,0.00,,,0.00,weatherlink.com 1.10,2013-11-05 05:10:00,
2013-11-04 23:25:00,50.8,45.0,30.19,South,187,4.0,9.0,81,0.00,,,0.00,weatherlink.com 1.10,2013-11-05 05:25:00,
2013-11-04 23:40:00,50.7,45.0,30.19,SSW,202,4.0,7.0,81,0.00,,,0.00,weatherlink.com 1.10,2013-11-05 05:40:00,
2013-11-04 23:55:00,50.7,45.0,30.19,SSW,198,3.0,7.0,81,0.00,,,0.00,weatherlink.com 1.10,2013-11-05 05:55:00,